ムンバイ の空港の天気 - METARとTAF

チャットラパティー・シヴァージー国際空港 ( VABB / BOM ) - インド ムンバイ
飛行場実況気象(Metar)
観測時間07/17 15:00 IST (07/17 09:30 UTC)
風向・風速西南西 5m/s 瞬間風速10m/s
視程2500m
天気現象周辺でしゅう雨
少しの雲 雲底高度 300m
全天の4割程度の雲 雲底高度 550m
少しの雲 雲底高度 760m
全天の8割程度の雲 雲底高度 2740m
気温29℃
湿度79%
気圧1001hPa
METARVABB 170930Z 25009G19KT 2500 VCSH FEW010 SCT018 FEW025TCU BKN090 29/25 Q1001 TEMPO 1500 SHRA
過去の天気等 Google飛行場航空写真 Wunderground天気予報

過去48時間のMETAR

飛行場予報(TAF)
発表時間: 7/17 13:30 IST (7/17 08:00 UTC)
予報対象時間: 17日14時 IST ~ 17日23時 IST
風向・風速西南西 4m/s 瞬間風速 9m/s
視程3000m
天気現象煙霧
少しの雲 雲底高度 370m
全天の4割程度の雲 雲底高度 550m
少しの塔状積雲 雲底高度 760m
全天の8割程度の雲 雲底高度 2740m
17日21時 IST ~ 17日23時 IST に徐々に
風向・風速西南西 6m/s
17日14時 IST ~ 17日23時 IST に一時的に
視程1500m
天気現象しゅう雨 雨
全天の8割程度の雲 雲底高度 300m
少しの積乱雲 雲底高度 910m
全天を覆う雲 雲底高度 2440m
TAF VABB 170800Z 1709/1718 24008G18KT 3000 HZ FEW012 SCT018 FEW025TCU BKN090
BECMG 1716/1718 24012KT
TEMPO 1709/1718 1500 SHRA RA BKN010 FEW030CB OVC080